sensor_id;sensor_type;location;lat;lon;timestamp;P1;durP1;ratioP1;P2;durP2;ratioP2
60233;SDS011;49514;43.538;-5.708;2023-09-30T00:01:54;19.98;;;8.73;;
60233;SDS011;49514;43.538;-5.708;2023-09-30T00:04:21;22.08;;;8.20;;
60233;SDS011;49514;43.538;-5.708;2023-09-30T00:06:48;22.35;;;7.65;;
60233;SDS011;49514;43.538;-5.708;2023-09-30T00:09:15;22.05;;;7.68;;
60233;SDS011;49514;43.538;-5.708;2023-09-30T00:11:41;36.63;;;9.43;;
60233;SDS011;49514;43.538;-5.708;2023-09-30T00:14:08;74.75;;;11.38;;
60233;SDS011;49514;43.538;-5.708;2023-09-30T00:16:35;45.63;;;10.57;;
60233;SDS011;49514;43.538;-5.708;2023-09-30T00:19:01;56.38;;;10.13;;
60233;SDS011;49514;43.538;-5.708;2023-09-30T00:21:29;55.33;;;10.70;;
60233;SDS011;49514;43.538;-5.708;2023-09-30T00:23:56;78.70;;;11.43;;
60233;SDS011;49514;43.538;-5.708;2023-09-30T00:26:23;49.83;;;11.57;;
60233;SDS011;49514;43.538;-5.708;2023-09-30T00:28:51;45.80;;;12.07;;
60233;SDS011;49514;43.538;-5.708;2023-09-30T00:31:18;29.40;;;9.38;;
60233;SDS011;49514;43.538;-5.708;2023-09-30T00:33:45;24.02;;;9.02;;
60233;SDS011;49514;43.538;-5.708;2023-09-30T00:36:11;20.30;;;8.40;;
60233;SDS011;49514;43.538;-5.708;2023-09-30T00:38:39;23.30;;;8.02;;
60233;SDS011;49514;43.538;-5.708;2023-09-30T00:41:06;20.02;;;8.50;;
60233;SDS011;49514;43.538;-5.708;2023-09-30T00:43:33;20.90;;;8.63;;
60233;SDS011;49514;43.538;-5.708;2023-09-30T00:48:51;20.02;;;8.23;;
60233;SDS011;49514;43.538;-5.708;2023-09-30T00:51:19;13.95;;;8.00;;
60233;SDS011;49514;43.538;-5.708;2023-09-30T00:53:47;15.85;;;8.00;;
60233;SDS011;49514;43.538;-5.708;2023-09-30T00:56:14;12.23;;;7.22;;
60233;SDS011;49514;43.538;-5.708;2023-09-30T00:58:43;12.35;;;7.43;;
60233;SDS011;49514;43.538;-5.708;2023-09-30T01:01:12;15.77;;;7.53;;
60233;SDS011;49514;43.538;-5.708;2023-09-30T01:03:38;16.75;;;7.90;;
60233;SDS011;49514;43.538;-5.708;2023-09-30T01:06:05;13.07;;;8.07;;
60233;SDS011;49514;43.538;-5.708;2023-09-30T01:08:33;17.00;;;8.00;;
60233;SDS011;49514;43.538;-5.708;2023-09-30T01:11:00;14.00;;;7.65;;
60233;SDS011;49514;43.538;-5.708;2023-09-30T01:13:33;25.55;;;10.27;;
60233;SDS011;49514;43.538;-5.708;2023-09-30T01:16:07;26.77;;;9.87;;
60233;SDS011;49514;43.538;-5.708;2023-09-30T01:18:39;24.13;;;9.07;;
60233;SDS011;49514;43.538;-5.708;2023-09-30T01:21:08;19.23;;;8.35;;
60233;SDS011;49514;43.538;-5.708;2023-09-30T01:23:35;21.45;;;8.27;;
60233;SDS011;49514;43.538;-5.708;2023-09-30T01:26:02;14.32;;;7.45;;
60233;SDS011;49514;43.538;-5.708;2023-09-30T01:28:31;12.57;;;6.95;;
60233;SDS011;49514;43.538;-5.708;2023-09-30T01:30:58;16.88;;;7.10;;
60233;SDS011;49514;43.538;-5.708;2023-09-30T01:33:25;12.98;;;7.40;;
60233;SDS011;49514;43.538;-5.708;2023-09-30T01:35:51;14.40;;;7.38;;
60233;SDS011;49514;43.538;-5.708;2023-09-30T01:38:18;11.40;;;6.55;;
60233;SDS011;49514;43.538;-5.708;2023-09-30T01:40:46;14.38;;;7.75;;
60233;SDS011;49514;43.538;-5.708;2023-09-30T01:43:15;13.15;;;7.53;;
60233;SDS011;49514;43.538;-5.708;2023-09-30T01:45:42;12.40;;;7.90;;
60233;SDS011;49514;43.538;-5.708;2023-09-30T01:48:10;16.52;;;7.60;;
60233;SDS011;49514;43.538;-5.708;2023-09-30T01:50:40;14.38;;;7.50;;
60233;SDS011;49514;43.538;-5.708;2023-09-30T01:53:07;29.70;;;9.73;;
60233;SDS011;49514;43.538;-5.708;2023-09-30T01:55:37;21.10;;;8.73;;
60233;SDS011;49514;43.538;-5.708;2023-09-30T01:58:04;19.60;;;9.07;;
60233;SDS011;49514;43.538;-5.708;2023-09-30T02:00:31;27.92;;;9.68;;
60233;SDS011;49514;43.538;-5.708;2023-09-30T02:02:57;25.92;;;9.32;;
60233;SDS011;49514;43.538;-5.708;2023-09-30T02:05:24;17.42;;;8.18;;
60233;SDS011;49514;43.538;-5.708;2023-09-30T02:07:51;26.65;;;9.65;;
60233;SDS011;49514;43.538;-5.708;2023-09-30T02:10:18;17.48;;;8.52;;
60233;SDS011;49514;43.538;-5.708;2023-09-30T02:12:45;20.73;;;8.32;;
60233;SDS011;49514;43.538;-5.708;2023-09-30T02:15:13;13.88;;;8.60;;
60233;SDS011;49514;43.538;-5.708;2023-09-30T02:17:40;27.35;;;11.57;;
60233;SDS011;49514;43.538;-5.708;2023-09-30T02:20:11;30.30;;;10.35;;
60233;SDS011;49514;43.538;-5.708;2023-09-30T02:22:41;24.80;;;10.38;;
60233;SDS011;49514;43.538;-5.708;2023-09-30T02:25:10;23.08;;;10.07;;
60233;SDS011;49514;43.538;-5.708;2023-09-30T02:27:41;24.50;;;10.10;;
60233;SDS011;49514;43.538;-5.708;2023-09-30T02:30:11;29.77;;;10.68;;
60233;SDS011;49514;43.538;-5.708;2023-09-30T02:32:40;26.88;;;10.75;;
60233;SDS011;49514;43.538;-5.708;2023-09-30T02:35:07;27.65;;;9.50;;
60233;SDS011;49514;43.538;-5.708;2023-09-30T02:37:38;29.52;;;9.73;;
60233;SDS011;49514;43.538;-5.708;2023-09-30T02:40:06;23.67;;;9.00;;
60233;SDS011;49514;43.538;-5.708;2023-09-30T02:42:36;18.98;;;8.68;;
60233;SDS011;49514;43.538;-5.708;2023-09-30T02:45:06;21.73;;;9.13;;
60233;SDS011;49514;43.538;-5.708;2023-09-30T02:47:34;17.00;;;7.88;;
60233;SDS011;49514;43.538;-5.708;2023-09-30T02:50:01;24.08;;;9.00;;
60233;SDS011;49514;43.538;-5.708;2023-09-30T02:52:28;19.17;;;8.98;;
60233;SDS011;49514;43.538;-5.708;2023-09-30T02:54:55;25.45;;;9.48;;
60233;SDS011;49514;43.538;-5.708;2023-09-30T02:57:23;18.23;;;9.25;;
60233;SDS011;49514;43.538;-5.708;2023-09-30T02:59:50;22.63;;;9.52;;
60233;SDS011;49514;43.538;-5.708;2023-09-30T03:02:25;19.38;;;8.65;;
60233;SDS011;49514;43.538;-5.708;2023-09-30T03:04:52;26.40;;;9.93;;
60233;SDS011;49514;43.538;-5.708;2023-09-30T03:07:19;18.65;;;9.45;;
60233;SDS011;49514;43.538;-5.708;2023-09-30T03:09:46;17.25;;;9.48;;
60233;SDS011;49514;43.538;-5.708;2023-09-30T03:12:13;16.83;;;9.35;;
60233;SDS011;49514;43.538;-5.708;2023-09-30T03:14:40;17.67;;;9.07;;
60233;SDS011;49514;43.538;-5.708;2023-09-30T03:17:08;16.85;;;8.52;;
60233;SDS011;49514;43.538;-5.708;2023-09-30T03:19:38;16.17;;;8.75;;
60233;SDS011;49514;43.538;-5.708;2023-09-30T03:22:05;16.45;;;9.80;;
60233;SDS011;49514;43.538;-5.708;2023-09-30T03:24:38;21.42;;;10.32;;
60233;SDS011;49514;43.538;-5.708;2023-09-30T03:27:05;25.92;;;11.93;;
60233;SDS011;49514;43.538;-5.708;2023-09-30T03:29:32;26.30;;;11.73;;
60233;SDS011;49514;43.538;-5.708;2023-09-30T03:34:27;21.95;;;12.20;;
60233;SDS011;49514;43.538;-5.708;2023-09-30T03:36:55;29.52;;;13.68;;
60233;SDS011;49514;43.538;-5.708;2023-09-30T03:39:24;26.10;;;13.02;;
60233;SDS011;49514;43.538;-5.708;2023-09-30T03:41:56;25.20;;;12.98;;
60233;SDS011;49514;43.538;-5.708;2023-09-30T03:44:24;20.33;;;11.23;;
60233;SDS011;49514;43.538;-5.708;2023-09-30T03:46:51;19.15;;;10.20;;
60233;SDS011;49514;43.538;-5.708;2023-09-30T03:49:18;22.20;;;10.93;;
60233;SDS011;49514;43.538;-5.708;2023-09-30T03:51:48;20.90;;;10.20;;
60233;SDS011;49514;43.538;-5.708;2023-09-30T03:54:16;22.33;;;11.45;;
60233;SDS011;49514;43.538;-5.708;2023-09-30T03:56:44;27.17;;;12.43;;
60233;SDS011;49514;43.538;-5.708;2023-09-30T03:59:12;24.33;;;12.75;;
60233;SDS011;49514;43.538;-5.708;2023-09-30T04:01:39;26.10;;;12.38;;
60233;SDS011;49514;43.538;-5.708;2023-09-30T04:04:06;26.17;;;12.98;;
60233;SDS011;49514;43.538;-5.708;2023-09-30T04:11:38;26.38;;;12.32;;
60233;SDS011;49514;43.538;-5.708;2023-09-30T05:00:43;22.40;;;10.13;;
60233;SDS011;49514;43.538;-5.708;2023-09-30T05:05:36;24.88;;;11.27;;
60233;SDS011;49514;43.538;-5.708;2023-09-30T05:08:03;28.35;;;11.98;;
60233;SDS011;49514;43.538;-5.708;2023-09-30T05:10:32;17.23;;;10.35;;
60233;SDS011;49514;43.538;-5.708;2023-09-30T05:12:59;34.30;;;11.98;;
60233;SDS011;49514;43.538;-5.708;2023-09-30T05:15:26;49.92;;;11.95;;
60233;SDS011;49514;43.538;-5.708;2023-09-30T05:17:55;44.72;;;11.85;;
60233;SDS011;49514;43.538;-5.708;2023-09-30T05:20:21;20.52;;;11.32;;
60233;SDS011;49514;43.538;-5.708;2023-09-30T05:22:48;29.75;;;12.02;;
60233;SDS011;49514;43.538;-5.708;2023-09-30T05:25:16;21.75;;;10.50;;
60233;SDS011;49514;43.538;-5.708;2023-09-30T05:27:46;24.30;;;10.18;;
60233;SDS011;49514;43.538;-5.708;2023-09-30T05:30:14;20.63;;;11.00;;
60233;SDS011;49514;43.538;-5.708;2023-09-30T05:32:42;20.42;;;10.55;;
60233;SDS011;49514;43.538;-5.708;2023-09-30T05:35:09;25.77;;;11.20;;
60233;SDS011;49514;43.538;-5.708;2023-09-30T05:37:39;21.63;;;11.32;;
60233;SDS011;49514;43.538;-5.708;2023-09-30T05:40:11;17.40;;;10.30;;
60233;SDS011;49514;43.538;-5.708;2023-09-30T05:42:53;22.00;;;10.10;;
60233;SDS011;49514;43.538;-5.708;2023-09-30T05:45:24;15.50;;;9.57;;
60233;SDS011;49514;43.538;-5.708;2023-09-30T05:47:53;12.18;;;8.05;;
60233;SDS011;49514;43.538;-5.708;2023-09-30T05:50:20;13.23;;;8.10;;
60233;SDS011;49514;43.538;-5.708;2023-09-30T05:52:50;15.10;;;7.32;;
60233;SDS011;49514;43.538;-5.708;2023-09-30T05:55:18;11.23;;;6.63;;
60233;SDS011;49514;43.538;-5.708;2023-09-30T05:57:47;14.13;;;7.32;;
60233;SDS011;49514;43.538;-5.708;2023-09-30T06:00:15;12.40;;;7.43;;
60233;SDS011;49514;43.538;-5.708;2023-09-30T06:02:49;11.00;;;6.90;;
60233;SDS011;49514;43.538;-5.708;2023-09-30T06:05:17;11.60;;;7.30;;
60233;SDS011;49514;43.538;-5.708;2023-09-30T06:07:53;13.38;;;8.00;;
60233;SDS011;49514;43.538;-5.708;2023-09-30T06:10:20;11.65;;;6.72;;
60233;SDS011;49514;43.538;-5.708;2023-09-30T06:12:47;11.13;;;6.70;;
60233;SDS011;49514;43.538;-5.708;2023-09-30T06:15:15;12.38;;;7.10;;
60233;SDS011;49514;43.538;-5.708;2023-09-30T06:17:48;11.65;;;6.82;;
60233;SDS011;49514;43.538;-5.708;2023-09-30T06:20:18;10.60;;;6.10;;
60233;SDS011;49514;43.538;-5.708;2023-09-30T06:22:48;12.85;;;6.78;;
60233;SDS011;49514;43.538;-5.708;2023-09-30T06:25:16;9.77;;;6.25;;
60233;SDS011;49514;43.538;-5.708;2023-09-30T06:27:44;15.25;;;6.93;;
60233;SDS011;49514;43.538;-5.708;2023-09-30T06:30:12;10.07;;;6.18;;
60233;SDS011;49514;43.538;-5.708;2023-09-30T06:32:39;12.57;;;7.05;;
60233;SDS011;49514;43.538;-5.708;2023-09-30T06:35:07;11.45;;;6.65;;
60233;SDS011;49514;43.538;-5.708;2023-09-30T06:37:41;12.30;;;6.88;;
60233;SDS011;49514;43.538;-5.708;2023-09-30T06:40:09;17.10;;;7.35;;
60233;SDS011;49514;43.538;-5.708;2023-09-30T06:42:38;8.88;;;6.35;;
60233;SDS011;49514;43.538;-5.708;2023-09-30T06:45:08;19.25;;;9.40;;
60233;SDS011;49514;43.538;-5.708;2023-09-30T06:47:36;20.60;;;11.05;;
60233;SDS011;49514;43.538;-5.708;2023-09-30T06:50:05;24.50;;;14.57;;
60233;SDS011;49514;43.538;-5.708;2023-09-30T06:52:38;36.33;;;20.83;;
60233;SDS011;49514;43.538;-5.708;2023-09-30T06:55:07;33.28;;;20.30;;
60233;SDS011;49514;43.538;-5.708;2023-09-30T06:57:35;31.50;;;19.08;;
60233;SDS011;49514;43.538;-5.708;2023-09-30T07:00:06;27.38;;;16.50;;
60233;SDS011;49514;43.538;-5.708;2023-09-30T07:02:38;20.45;;;12.32;;
60233;SDS011;49514;43.538;-5.708;2023-09-30T07:05:08;18.70;;;11.93;;
60233;SDS011;49514;43.538;-5.708;2023-09-30T07:07:36;30.67;;;19.88;;
60233;SDS011;49514;43.538;-5.708;2023-09-30T07:10:03;37.95;;;21.40;;
60233;SDS011;49514;43.538;-5.708;2023-09-30T07:12:31;34.90;;;21.67;;
60233;SDS011;49514;43.538;-5.708;2023-09-30T07:15:01;34.00;;;18.63;;
60233;SDS011;49514;43.538;-5.708;2023-09-30T07:17:31;24.38;;;14.88;;
60233;SDS011;49514;43.538;-5.708;2023-09-30T07:20:00;25.80;;;12.07;;
60233;SDS011;49514;43.538;-5.708;2023-09-30T07:22:28;20.80;;;10.20;;
60233;SDS011;49514;43.538;-5.708;2023-09-30T07:24:54;16.35;;;8.63;;
60233;SDS011;49514;43.538;-5.708;2023-09-30T07:27:21;15.43;;;8.35;;
60233;SDS011;49514;43.538;-5.708;2023-09-30T07:29:48;17.70;;;8.20;;
60233;SDS011;49514;43.538;-5.708;2023-09-30T07:32:16;13.73;;;7.55;;
60233;SDS011;49514;43.538;-5.708;2023-09-30T07:34:43;13.52;;;7.45;;
60233;SDS011;49514;43.538;-5.708;2023-09-30T07:37:10;12.75;;;6.72;;
60233;SDS011;49514;43.538;-5.708;2023-09-30T07:39:37;10.70;;;6.57;;
60233;SDS011;49514;43.538;-5.708;2023-09-30T07:42:04;10.73;;;6.00;;
60233;SDS011;49514;43.538;-5.708;2023-09-30T07:44:31;12.25;;;6.68;;
60233;SDS011;49514;43.538;-5.708;2023-09-30T07:46:58;11.57;;;6.00;;
60233;SDS011;49514;43.538;-5.708;2023-09-30T07:49:25;11.05;;;5.65;;
60233;SDS011;49514;43.538;-5.708;2023-09-30T07:51:53;9.57;;;5.75;;
60233;SDS011;49514;43.538;-5.708;2023-09-30T07:54:20;7.30;;;5.05;;
60233;SDS011;49514;43.538;-5.708;2023-09-30T07:56:46;11.32;;;5.70;;
60233;SDS011;49514;43.538;-5.708;2023-09-30T07:59:13;9.82;;;5.10;;
60233;SDS011;49514;43.538;-5.708;2023-09-30T08:01:41;9.52;;;5.45;;
60233;SDS011;49514;43.538;-5.708;2023-09-30T08:04:08;13.80;;;5.35;;
60233;SDS011;49514;43.538;-5.708;2023-09-30T08:06:35;11.27;;;5.38;;
60233;SDS011;49514;43.538;-5.708;2023-09-30T08:09:02;10.77;;;5.40;;
60233;SDS011;49514;43.538;-5.708;2023-09-30T08:11:29;8.00;;;5.25;;
60233;SDS011;49514;43.538;-5.708;2023-09-30T08:13:58;13.73;;;6.57;;
60233;SDS011;49514;43.538;-5.708;2023-09-30T08:16:25;13.02;;;6.75;;
60233;SDS011;49514;43.538;-5.708;2023-09-30T08:18:52;15.85;;;6.40;;
60233;SDS011;49514;43.538;-5.708;2023-09-30T08:21:19;13.82;;;7.50;;
60233;SDS011;49514;43.538;-5.708;2023-09-30T08:23:46;16.23;;;7.30;;
60233;SDS011;49514;43.538;-5.708;2023-09-30T08:26:13;15.48;;;7.50;;
60233;SDS011;49514;43.538;-5.708;2023-09-30T08:28:39;18.83;;;8.48;;
60233;SDS011;49514;43.538;-5.708;2023-09-30T08:31:08;17.50;;;7.82;;
60233;SDS011;49514;43.538;-5.708;2023-09-30T08:33:35;15.65;;;8.80;;
60233;SDS011;49514;43.538;-5.708;2023-09-30T08:36:10;17.25;;;9.43;;
60233;SDS011;49514;43.538;-5.708;2023-09-30T08:38:37;16.35;;;9.57;;
60233;SDS011;49514;43.538;-5.708;2023-09-30T08:41:05;17.15;;;9.30;;
60233;SDS011;49514;43.538;-5.708;2023-09-30T08:43:39;17.92;;;9.27;;
60233;SDS011;49514;43.538;-5.708;2023-09-30T08:46:07;14.38;;;8.52;;
60233;SDS011;49514;43.538;-5.708;2023-09-30T08:48:33;15.55;;;8.55;;
60233;SDS011;49514;43.538;-5.708;2023-09-30T08:51:01;15.23;;;8.75;;
60233;SDS011;49514;43.538;-5.708;2023-09-30T08:53:29;16.33;;;7.38;;
60233;SDS011;49514;43.538;-5.708;2023-09-30T08:55:56;12.70;;;8.02;;
60233;SDS011;49514;43.538;-5.708;2023-09-30T08:58:26;12.43;;;6.95;;
60233;SDS011;49514;43.538;-5.708;2023-09-30T09:00:58;12.50;;;7.28;;
60233;SDS011;49514;43.538;-5.708;2023-09-30T09:03:27;11.15;;;6.15;;
60233;SDS011;49514;43.538;-5.708;2023-09-30T09:05:55;11.38;;;6.18;;
60233;SDS011;49514;43.538;-5.708;2023-09-30T09:08:26;11.82;;;6.88;;
60233;SDS011;49514;43.538;-5.708;2023-09-30T09:10:54;11.90;;;7.18;;
60233;SDS011;49514;43.538;-5.708;2023-09-30T09:13:25;13.65;;;6.88;;
60233;SDS011;49514;43.538;-5.708;2023-09-30T09:16:05;13.82;;;7.90;;
60233;SDS011;49514;43.538;-5.708;2023-09-30T09:18:33;15.98;;;8.60;;
60233;SDS011;49514;43.538;-5.708;2023-09-30T09:21:10;16.15;;;8.68;;
60233;SDS011;49514;43.538;-5.708;2023-09-30T09:23:43;17.00;;;9.57;;
60233;SDS011;49514;43.538;-5.708;2023-09-30T09:28:58;18.15;;;9.30;;
60233;SDS011;49514;43.538;-5.708;2023-09-30T09:31:27;16.90;;;9.75;;
60233;SDS011;49514;43.538;-5.708;2023-09-30T09:36:40;20.08;;;9.38;;
60233;SDS011;49514;43.538;-5.708;2023-09-30T09:39:09;17.67;;;9.50;;
60233;SDS011;49514;43.538;-5.708;2023-09-30T09:41:53;17.88;;;9.50;;
60233;SDS011;49514;43.538;-5.708;2023-09-30T09:44:22;15.32;;;9.38;;
60233;SDS011;49514;43.538;-5.708;2023-09-30T09:46:49;19.10;;;9.55;;
60233;SDS011;49514;43.538;-5.708;2023-09-30T09:49:17;14.70;;;9.02;;
60233;SDS011;49514;43.538;-5.708;2023-09-30T09:51:45;14.30;;;8.52;;
60233;SDS011;49514;43.538;-5.708;2023-09-30T09:54:14;13.63;;;8.60;;
60233;SDS011;49514;43.538;-5.708;2023-09-30T09:56:45;19.02;;;9.30;;
60233;SDS011;49514;43.538;-5.708;2023-09-30T09:59:12;14.25;;;7.85;;
60233;SDS011;49514;43.538;-5.708;2023-09-30T10:01:40;13.27;;;8.18;;
60233;SDS011;49514;43.538;-5.708;2023-09-30T10:04:08;13.65;;;8.07;;
60233;SDS011;49514;43.538;-5.708;2023-09-30T10:06:37;12.40;;;8.05;;
60233;SDS011;49514;43.538;-5.708;2023-09-30T10:09:07;15.55;;;8.10;;
60233;SDS011;49514;43.538;-5.708;2023-09-30T10:11:40;18.00;;;8.70;;
60233;SDS011;49514;43.538;-5.708;2023-09-30T10:14:08;14.20;;;8.13;;
60233;SDS011;49514;43.538;-5.708;2023-09-30T10:19:11;15.63;;;9.02;;
60233;SDS011;49514;43.538;-5.708;2023-09-30T10:21:39;19.80;;;9.13;;
60233;SDS011;49514;43.538;-5.708;2023-09-30T10:29:53;17.85;;;10.52;;
60233;SDS011;49514;43.538;-5.708;2023-09-30T10:32:20;18.90;;;9.80;;
60233;SDS011;49514;43.538;-5.708;2023-09-30T10:34:48;15.38;;;8.27;;
60233;SDS011;49514;43.538;-5.708;2023-09-30T10:37:21;18.05;;;9.93;;
60233;SDS011;49514;43.538;-5.708;2023-09-30T10:39:56;15.65;;;9.00;;
60233;SDS011;49514;43.538;-5.708;2023-09-30T10:51:11;15.18;;;8.80;;
60233;SDS011;49514;43.538;-5.708;2023-09-30T10:53:44;15.48;;;9.10;;
60233;SDS011;49514;43.538;-5.708;2023-09-30T10:56:13;18.50;;;8.77;;
60233;SDS011;49514;43.538;-5.708;2023-09-30T10:58:50;19.40;;;10.15;;
60233;SDS011;49514;43.538;-5.708;2023-09-30T11:01:19;19.83;;;10.60;;
60233;SDS011;49514;43.538;-5.708;2023-09-30T11:03:47;16.63;;;9.35;;
60233;SDS011;49514;43.538;-5.708;2023-09-30T11:06:20;18.30;;;10.48;;
60233;SDS011;49514;43.538;-5.708;2023-09-30T11:08:54;17.17;;;10.18;;
60233;SDS011;49514;43.538;-5.708;2023-09-30T11:11:39;17.65;;;9.88;;
60233;SDS011;49514;43.538;-5.708;2023-09-30T11:16:49;17.38;;;10.10;;
60233;SDS011;49514;43.538;-5.708;2023-09-30T11:19:17;16.40;;;9.50;;
60233;SDS011;49514;43.538;-5.708;2023-09-30T11:21:48;16.38;;;9.60;;
60233;SDS011;49514;43.538;-5.708;2023-09-30T11:24:18;14.95;;;9.68;;
60233;SDS011;49514;43.538;-5.708;2023-09-30T11:26:45;14.43;;;8.77;;
60233;SDS011;49514;43.538;-5.708;2023-09-30T11:29:13;17.15;;;9.50;;
60233;SDS011;49514;43.538;-5.708;2023-09-30T11:31:46;19.73;;;10.38;;
60233;SDS011;49514;43.538;-5.708;2023-09-30T11:34:16;16.98;;;10.20;;
60233;SDS011;49514;43.538;-5.708;2023-09-30T11:36:48;22.13;;;10.70;;
60233;SDS011;49514;43.538;-5.708;2023-09-30T11:39:23;19.02;;;10.75;;
60233;SDS011;49514;43.538;-5.708;2023-09-30T11:41:51;17.33;;;9.63;;
60233;SDS011;49514;43.538;-5.708;2023-09-30T11:44:18;18.73;;;9.15;;
60233;SDS011;49514;43.538;-5.708;2023-09-30T11:46:49;15.85;;;8.77;;
60233;SDS011;49514;43.538;-5.708;2023-09-30T11:51:56;13.48;;;8.55;;
60233;SDS011;49514;43.538;-5.708;2023-09-30T11:54:33;16.38;;;9.00;;
60233;SDS011;49514;43.538;-5.708;2023-09-30T11:57:11;20.03;;;8.70;;
60233;SDS011;49514;43.538;-5.708;2023-09-30T11:59:42;15.27;;;8.00;;
60233;SDS011;49514;43.538;-5.708;2023-09-30T12:14:30;13.30;;;7.43;;
60233;SDS011;49514;43.538;-5.708;2023-09-30T12:26:48;14.32;;;6.90;;
60233;SDS011;49514;43.538;-5.708;2023-09-30T12:49:03;12.80;;;4.32;;
60233;SDS011;49514;43.538;-5.708;2023-09-30T12:51:30;9.40;;;4.15;;
60233;SDS011;49514;43.538;-5.708;2023-09-30T12:53:58;8.68;;;4.35;;
60233;SDS011;49514;43.538;-5.708;2023-09-30T12:56:25;9.05;;;4.47;;
60233;SDS011;49514;43.538;-5.708;2023-09-30T12:58:52;10.43;;;4.40;;
60233;SDS011;49514;43.538;-5.708;2023-09-30T13:01:19;7.63;;;4.40;;
60233;SDS011;49514;43.538;-5.708;2023-09-30T13:03:47;9.77;;;4.65;;
60233;SDS011;49514;43.538;-5.708;2023-09-30T13:06:14;10.18;;;4.30;;
60233;SDS011;49514;43.538;-5.708;2023-09-30T13:08:42;9.50;;;4.70;;
60233;SDS011;49514;43.538;-5.708;2023-09-30T13:11:09;8.00;;;4.15;;
60233;SDS011;49514;43.538;-5.708;2023-09-30T13:13:37;11.73;;;4.35;;
60233;SDS011;49514;43.538;-5.708;2023-09-30T13:16:04;10.05;;;4.72;;
60233;SDS011;49514;43.538;-5.708;2023-09-30T13:18:34;8.70;;;4.50;;
60233;SDS011;49514;43.538;-5.708;2023-09-30T13:21:02;8.18;;;3.83;;
60233;SDS011;49514;43.538;-5.708;2023-09-30T13:23:32;8.18;;;4.07;;
60233;SDS011;49514;43.538;-5.708;2023-09-30T13:50:30;7.93;;;3.40;;
60233;SDS011;49514;43.538;-5.708;2023-09-30T14:12:39;7.68;;;3.10;;
60233;SDS011;49514;43.538;-5.708;2023-09-30T14:22:31;7.72;;;2.97;;
60233;SDS011;49514;43.538;-5.708;2023-09-30T14:24:58;7.10;;;2.70;;
60233;SDS011;49514;43.538;-5.708;2023-09-30T14:27:25;7.70;;;2.80;;
60233;SDS011;49514;43.538;-5.708;2023-09-30T14:29:52;7.53;;;3.00;;
60233;SDS011;49514;43.538;-5.708;2023-09-30T14:32:19;8.23;;;2.65;;
60233;SDS011;49514;43.538;-5.708;2023-09-30T14:34:46;5.85;;;2.60;;
60233;SDS011;49514;43.538;-5.708;2023-09-30T14:37:14;7.63;;;2.80;;
60233;SDS011;49514;43.538;-5.708;2023-09-30T14:39:43;8.80;;;2.58;;
60233;SDS011;49514;43.538;-5.708;2023-09-30T16:05:48;6.95;;;3.40;;
60233;SDS011;49514;43.538;-5.708;2023-09-30T16:10:43;7.45;;;3.17;;
60233;SDS011;49514;43.538;-5.708;2023-09-30T16:15:37;8.13;;;3.70;;
60233;SDS011;49514;43.538;-5.708;2023-09-30T16:18:05;11.18;;;4.10;;
60233;SDS011;49514;43.538;-5.708;2023-09-30T16:27:53;10.70;;;4.90;;
60233;SDS011;49514;43.538;-5.708;2023-09-30T16:32:47;12.90;;;4.72;;
60233;SDS011;49514;43.538;-5.708;2023-09-30T16:35:14;11.93;;;4.93;;
60233;SDS011;49514;43.538;-5.708;2023-09-30T16:37:41;11.48;;;4.80;;
60233;SDS011;49514;43.538;-5.708;2023-09-30T16:40:08;9.00;;;4.40;;
60233;SDS011;49514;43.538;-5.708;2023-09-30T16:42:35;10.15;;;4.40;;
60233;SDS011;49514;43.538;-5.708;2023-09-30T16:45:02;9.57;;;4.17;;
60233;SDS011;49514;43.538;-5.708;2023-09-30T16:47:30;11.10;;;4.38;;
60233;SDS011;49514;43.538;-5.708;2023-09-30T16:49:58;8.65;;;3.85;;
60233;SDS011;49514;43.538;-5.708;2023-09-30T16:52:26;9.35;;;4.32;;
60233;SDS011;49514;43.538;-5.708;2023-09-30T16:54:53;9.33;;;3.83;;
60233;SDS011;49514;43.538;-5.708;2023-09-30T16:57:20;9.80;;;3.90;;
60233;SDS011;49514;43.538;-5.708;2023-09-30T16:59:48;9.70;;;4.05;;
60233;SDS011;49514;43.538;-5.708;2023-09-30T17:02:17;12.07;;;4.65;;
60233;SDS011;49514;43.538;-5.708;2023-09-30T17:04:44;13.00;;;4.70;;
60233;SDS011;49514;43.538;-5.708;2023-09-30T17:07:11;8.82;;;4.55;;
60233;SDS011;49514;43.538;-5.708;2023-09-30T17:09:39;11.40;;;4.80;;
60233;SDS011;49514;43.538;-5.708;2023-09-30T17:12:07;18.20;;;7.53;;
60233;SDS011;49514;43.538;-5.708;2023-09-30T17:14:34;13.10;;;7.35;;
60233;SDS011;49514;43.538;-5.708;2023-09-30T17:17:02;11.27;;;6.97;;
60233;SDS011;49514;43.538;-5.708;2023-09-30T17:19:28;14.45;;;5.97;;
60233;SDS011;49514;43.538;-5.708;2023-09-30T17:21:55;16.70;;;6.03;;
60233;SDS011;49514;43.538;-5.708;2023-09-30T17:24:23;16.60;;;6.50;;
60233;SDS011;49514;43.538;-5.708;2023-09-30T17:26:50;12.63;;;6.25;;
60233;SDS011;49514;43.538;-5.708;2023-09-30T17:29:17;13.88;;;6.43;;
60233;SDS011;49514;43.538;-5.708;2023-09-30T17:31:43;12.35;;;7.10;;
60233;SDS011;49514;43.538;-5.708;2023-09-30T17:34:10;14.98;;;6.43;;
60233;SDS011;49514;43.538;-5.708;2023-09-30T17:36:37;17.55;;;8.38;;
60233;SDS011;49514;43.538;-5.708;2023-09-30T17:39:04;15.70;;;7.57;;
60233;SDS011;49514;43.538;-5.708;2023-09-30T17:41:32;13.57;;;6.15;;
60233;SDS011;49514;43.538;-5.708;2023-09-30T17:43:59;14.35;;;6.50;;
60233;SDS011;49514;43.538;-5.708;2023-09-30T17:46:26;12.38;;;6.57;;
60233;SDS011;49514;43.538;-5.708;2023-09-30T17:48:52;14.15;;;7.25;;
60233;SDS011;49514;43.538;-5.708;2023-09-30T17:51:19;13.35;;;6.60;;
60233;SDS011;49514;43.538;-5.708;2023-09-30T17:53:46;14.75;;;6.15;;
60233;SDS011;49514;43.538;-5.708;2023-09-30T17:56:18;12.57;;;6.60;;
60233;SDS011;49514;43.538;-5.708;2023-09-30T17:58:46;14.05;;;6.38;;
60233;SDS011;49514;43.538;-5.708;2023-09-30T18:01:13;15.10;;;5.90;;
60233;SDS011;49514;43.538;-5.708;2023-09-30T18:03:45;12.68;;;5.47;;
60233;SDS011;49514;43.538;-5.708;2023-09-30T18:06:12;15.80;;;5.75;;
60233;SDS011;49514;43.538;-5.708;2023-09-30T18:08:39;12.68;;;5.80;;
60233;SDS011;49514;43.538;-5.708;2023-09-30T18:11:06;12.18;;;5.80;;
60233;SDS011;49514;43.538;-5.708;2023-09-30T18:13:37;16.90;;;5.97;;
60233;SDS011;49514;43.538;-5.708;2023-09-30T18:16:04;16.23;;;6.32;;
60233;SDS011;49514;43.538;-5.708;2023-09-30T18:18:32;12.45;;;5.63;;
60233;SDS011;49514;43.538;-5.708;2023-09-30T18:20:59;14.45;;;5.88;;
60233;SDS011;49514;43.538;-5.708;2023-09-30T18:23:26;14.50;;;5.30;;
60233;SDS011;49514;43.538;-5.708;2023-09-30T18:25:53;15.25;;;6.50;;
60233;SDS011;49514;43.538;-5.708;2023-09-30T18:28:21;13.00;;;5.32;;
60233;SDS011;49514;43.538;-5.708;2023-09-30T18:30:48;13.63;;;5.80;;
60233;SDS011;49514;43.538;-5.708;2023-09-30T18:33:14;15.65;;;6.30;;
60233;SDS011;49514;43.538;-5.708;2023-09-30T18:35:42;16.30;;;5.82;;
60233;SDS011;49514;43.538;-5.708;2023-09-30T18:38:09;14.68;;;6.30;;
60233;SDS011;49514;43.538;-5.708;2023-09-30T18:40:37;14.20;;;6.20;;
60233;SDS011;49514;43.538;-5.708;2023-09-30T18:43:05;12.82;;;6.40;;
60233;SDS011;49514;43.538;-5.708;2023-09-30T18:45:43;13.32;;;6.20;;
60233;SDS011;49514;43.538;-5.708;2023-09-30T18:48:10;15.80;;;6.43;;
60233;SDS011;49514;43.538;-5.708;2023-09-30T18:50:39;14.73;;;6.82;;
60233;SDS011;49514;43.538;-5.708;2023-09-30T18:53:06;15.38;;;6.05;;
60233;SDS011;49514;43.538;-5.708;2023-09-30T18:55:34;13.25;;;5.95;;
60233;SDS011;49514;43.538;-5.708;2023-09-30T18:58:06;13.93;;;6.30;;
60233;SDS011;49514;43.538;-5.708;2023-09-30T19:00:37;13.02;;;6.63;;
60233;SDS011;49514;43.538;-5.708;2023-09-30T19:03:04;13.45;;;6.20;;
60233;SDS011;49514;43.538;-5.708;2023-09-30T19:05:35;14.98;;;5.78;;
60233;SDS011;49514;43.538;-5.708;2023-09-30T19:08:03;14.63;;;6.40;;